createdAt,value
2022-11-17T00:00:42.486Z,82.91
2022-11-17T00:03:16.222Z,82.79
2022-11-17T00:05:44.643Z,82.98
2022-11-17T00:08:11.912Z,82.91
2022-11-17T00:10:38.964Z,82.94
2022-11-17T00:13:24.186Z,83.35
2022-11-17T00:15:51.305Z,82.99
2022-11-17T00:18:36.870Z,83.39
2022-11-17T00:21:19.735Z,82.93
2022-11-17T00:23:47.661Z,82.93
2022-11-17T00:26:26.553Z,83.25
2022-11-17T00:29:03.013Z,83.24
2022-11-17T00:31:51.569Z,83.27
2022-11-17T00:34:21.925Z,83.69
2022-11-17T00:36:52.283Z,83.47
2022-11-17T00:39:22.165Z,83.77
2022-11-17T00:41:49.623Z,84.24
2022-11-17T00:44:16.847Z,84.41
2022-11-17T00:46:43.806Z,84.58
2022-11-17T00:49:11.590Z,84.54
2022-11-17T00:51:39.058Z,84.48
2022-11-17T00:54:07.862Z,84.09
2022-11-17T00:56:34.834Z,84.03
2022-11-17T00:59:01.954Z,84.44
2022-11-17T01:01:29.969Z,85.16
2022-11-17T01:04:05.190Z,84.66
2022-11-17T01:06:49.651Z,85.38
2022-11-17T01:09:21.008Z,85.15
2022-11-17T01:11:50.424Z,85.71
2022-11-17T01:14:25.559Z,84.86
2022-11-17T01:16:53.330Z,85.36
2022-11-17T01:19:21.695Z,85.45
2022-11-17T01:21:48.741Z,85.34
2022-11-17T01:24:17.043Z,85.43
2022-11-17T01:26:45.686Z,85.53
2022-11-17T01:29:17.107Z,85.57
2022-11-17T01:31:49.074Z,85.67
2022-11-17T01:34:16.019Z,85.04
2022-11-17T01:37:02.881Z,85.42
2022-11-17T01:39:31.231Z,85.14
2022-11-17T01:42:02.649Z,85.59
2022-11-17T01:44:41.795Z,85.25
2022-11-17T01:47:21.055Z,85.56
2022-11-17T01:49:51.837Z,85.52
2022-11-17T01:52:18.906Z,85.52
2022-11-17T01:54:48.486Z,85.63
2022-11-17T01:57:26.377Z,85.54
2022-11-17T02:00:06.058Z,86.03
2022-11-17T02:02:35.659Z,85.81
2022-11-17T02:05:18.694Z,85.90
2022-11-17T02:07:49.374Z,86.07
2022-11-17T02:10:16.779Z,85.82
2022-11-17T02:12:45.008Z,85.71
2022-11-17T02:15:12.009Z,86.18
2022-11-17T02:17:43.997Z,86.06
2022-11-17T02:20:23.696Z,85.69
2022-11-17T02:23:23.323Z,86.03
2022-11-17T02:26:15.260Z,86.07
2022-11-17T02:28:57.065Z,85.75
2022-11-17T02:32:02.432Z,86.07
2022-11-17T02:34:59.318Z,86.26
2022-11-17T02:37:59.000Z,86.11
2022-11-17T02:40:39.968Z,86.13
2022-11-17T02:43:32.340Z,85.75
2022-11-17T02:46:10.739Z,85.81
2022-11-17T02:48:44.754Z,86.03
2022-11-17T02:51:20.577Z,85.82
2022-11-17T02:53:50.895Z,86.19
2022-11-17T02:56:17.857Z,86.29
2022-11-17T02:58:46.224Z,85.99
2022-11-17T03:01:22.292Z,86.27
2022-11-17T03:04:21.821Z,86.08
2022-11-17T03:07:07.409Z,85.98
2022-11-17T03:10:12.007Z,85.67
2022-11-17T03:13:17.943Z,85.98
2022-11-17T03:16:12.685Z,86.32
2022-11-17T03:18:55.846Z,86.57
2022-11-17T03:21:36.275Z,86.79
2022-11-17T03:24:19.534Z,86.85
2022-11-17T03:27:00.505Z,86.71
2022-11-17T03:29:31.708Z,86.71
2022-11-17T03:32:03.130Z,86.92
2022-11-17T03:34:45.657Z,86.80
2022-11-17T03:37:15.527Z,87.06
2022-11-17T03:39:51.782Z,87.11
2022-11-17T03:42:27.278Z,87.26
2022-11-17T03:45:01.318Z,87.28
2022-11-17T03:47:30.929Z,87.47
2022-11-17T03:50:23.711Z,86.94
2022-11-17T03:52:51.735Z,87.26
2022-11-17T03:55:18.693Z,87.48
2022-11-17T03:58:09.423Z,87.28
2022-11-17T04:00:38.745Z,87.59
2022-11-17T04:03:06.226Z,88.04
2022-11-17T04:05:33.182Z,87.84
2022-11-17T04:08:00.452Z,87.60
2022-11-17T04:10:27.626Z,87.83
2022-11-17T04:13:13.598Z,87.78
2022-11-17T04:15:59.187Z,87.81
2022-11-17T04:18:27.015Z,88.14
2022-11-17T04:20:57.008Z,88.05
2022-11-17T04:23:25.367Z,88.13
2022-11-17T04:26:14.221Z,88.00
2022-11-17T04:28:48.970Z,88.48
2022-11-17T04:31:19.892Z,88.11
2022-11-17T04:33:47.844Z,88.61
2022-11-17T04:36:19.170Z,88.81
2022-11-17T04:38:52.753Z,89.11
2022-11-17T04:41:41.330Z,88.64
2022-11-17T04:44:10.905Z,88.76
2022-11-17T04:46:39.993Z,89.21
2022-11-17T04:49:08.404Z,89.24
2022-11-17T04:51:36.513Z,89.16
2022-11-17T04:54:05.064Z,89.46
2022-11-17T04:56:32.116Z,89.51
2022-11-17T04:58:59.278Z,89.71
2022-11-17T05:01:27.767Z,89.53
2022-11-17T05:04:03.914Z,90.13
2022-11-17T05:06:44.150Z,89.70
2022-11-17T05:09:14.256Z,90.20
2022-11-17T05:12:00.981Z,90.30
2022-11-17T05:14:29.061Z,90.40
2022-11-17T05:17:09.513Z,90.83
2022-11-17T05:19:46.661Z,90.93
2022-11-17T05:22:39.478Z,90.83
2022-11-17T05:25:07.490Z,90.93
2022-11-17T05:27:35.070Z,90.82
2022-11-17T05:30:06.965Z,90.86
2022-11-17T05:32:34.636Z,90.87
2022-11-17T05:35:01.695Z,90.53
2022-11-17T05:37:28.656Z,90.54
2022-11-17T05:39:55.576Z,90.40
2022-11-17T05:42:25.116Z,90.64
2022-11-17T05:45:14.580Z,90.69
2022-11-17T05:47:41.698Z,90.71
2022-11-17T05:50:09.109Z,90.55
2022-11-17T05:52:36.051Z,90.52
2022-11-17T05:55:03.015Z,90.37
2022-11-17T05:57:32.409Z,90.90
2022-11-17T06:00:04.548Z,90.68
2022-11-17T06:02:47.315Z,91.69
2022-11-17T06:05:19.830Z,91.22
2022-11-17T06:07:47.997Z,91.28
2022-11-17T06:10:15.058Z,91.45
2022-11-17T06:12:42.004Z,91.62
2022-11-17T06:15:09.781Z,91.82
2022-11-17T06:17:47.940Z,91.75
2022-11-17T06:20:26.534Z,91.93
2022-11-17T06:22:55.656Z,91.82
2022-11-17T06:25:22.860Z,91.85
2022-11-17T06:27:50.900Z,91.55
2022-11-17T06:30:18.634Z,91.66
2022-11-17T06:32:46.484Z,91.57
2022-11-17T06:35:16.220Z,91.57
2022-11-17T06:37:43.604Z,91.69
2022-11-17T06:40:13.227Z,91.94
2022-11-17T06:42:59.150Z,92.07
2022-11-17T06:45:26.450Z,92.24
2022-11-17T06:47:54.034Z,92.15
2022-11-17T06:50:22.445Z,92.25
2022-11-17T06:52:49.395Z,92.32
2022-11-17T06:55:16.438Z,92.56
2022-11-17T06:57:46.520Z,92.43
2022-11-17T07:00:16.440Z,91.92
2022-11-17T07:02:43.469Z,92.25
2022-11-17T07:05:10.671Z,91.94
2022-11-17T07:07:37.709Z,92.31
2022-11-17T07:10:05.049Z,91.95
2022-11-17T07:12:33.462Z,91.90
2022-11-17T07:15:00.611Z,91.57
2022-11-17T07:17:28.971Z,91.70
2022-11-17T07:19:56.650Z,91.60
2022-11-17T07:22:23.596Z,91.21
2022-11-17T07:24:50.668Z,91.14
2022-11-17T07:27:17.625Z,90.89
2022-11-17T07:29:44.619Z,91.24
2022-11-17T07:32:13.943Z,91.25
2022-11-17T07:34:41.445Z,90.54
2022-11-17T07:37:08.474Z,91.07
2022-11-17T07:39:35.441Z,90.62
2022-11-17T07:42:02.479Z,90.42
2022-11-17T07:44:29.413Z,90.43
2022-11-17T07:46:56.561Z,90.51
2022-11-17T07:49:23.866Z,90.61
2022-11-17T07:51:50.861Z,90.49
2022-11-17T07:54:17.955Z,90.29
2022-11-17T07:56:44.909Z,90.09
2022-11-17T07:59:14.979Z,90.24
2022-11-17T08:01:45.490Z,89.42
2022-11-17T08:04:12.466Z,89.94
2022-11-17T08:06:39.392Z,89.42
2022-11-17T08:09:07.143Z,89.95
2022-11-17T08:11:34.330Z,89.73
2022-11-17T08:14:01.318Z,89.43
2022-11-17T08:16:30.843Z,89.27
2022-11-17T08:18:58.221Z,89.41
2022-11-17T08:21:25.683Z,89.59
2022-11-17T08:23:54.928Z,89.36
2022-11-17T08:26:24.907Z,89.33
2022-11-17T08:28:57.904Z,89.68
2022-11-17T08:31:25.326Z,89.10
2022-11-17T08:33:52.298Z,89.47
2022-11-17T08:36:19.285Z,89.14
2022-11-17T08:38:46.227Z,89.18
2022-11-17T08:41:13.280Z,89.23
2022-11-17T08:43:40.215Z,89.12
2022-11-17T08:46:14.153Z,89.45
2022-11-17T08:48:41.225Z,88.98
2022-11-17T08:51:09.481Z,89.20
2022-11-17T08:53:36.438Z,89.26
2022-11-17T08:56:13.363Z,89.08
2022-11-17T08:58:45.013Z,88.86
2022-11-17T09:01:15.767Z,89.05
2022-11-17T09:03:45.884Z,88.72
2022-11-17T09:06:15.244Z,88.74
2022-11-17T09:08:46.260Z,88.70
2022-11-17T09:11:14.925Z,88.62
2022-11-17T09:13:42.175Z,88.86
2022-11-17T09:16:11.385Z,88.54
2022-11-17T09:18:39.981Z,88.27
2022-11-17T09:21:17.861Z,88.55
2022-11-17T09:23:44.986Z,88.58
2022-11-17T09:26:14.637Z,88.55
2022-11-17T09:28:45.198Z,88.33
2022-11-17T09:31:19.571Z,88.44
2022-11-17T09:33:47.210Z,87.85
2022-11-17T09:36:16.614Z,88.12
2022-11-17T09:38:44.338Z,88.34
2022-11-17T09:41:35.374Z,87.93
2022-11-17T09:44:23.469Z,86.96
2022-11-17T09:47:32.930Z,87.85
2022-11-17T09:50:31.179Z,87.99
2022-11-17T09:53:25.955Z,87.83
2022-11-17T09:56:07.410Z,88.16
2022-11-17T09:59:05.039Z,88.73
2022-11-17T10:01:32.170Z,88.58
2022-11-17T10:04:01.259Z,88.33
2022-11-17T10:06:31.863Z,88.75
2022-11-17T10:09:28.123Z,88.56
2022-11-17T10:12:14.627Z,88.34
2022-11-17T10:14:42.098Z,88.79
2022-11-17T10:17:10.784Z,88.38
2022-11-17T10:19:38.649Z,88.57
2022-11-17T10:22:05.720Z,89.41
2022-11-17T10:24:43.199Z,89.00
2022-11-17T10:27:32.323Z,89.05
2022-11-17T10:30:00.197Z,89.52
2022-11-17T10:32:30.561Z,89.16
2022-11-17T10:35:28.959Z,89.04
2022-11-17T10:38:20.146Z,89.47
2022-11-17T10:40:50.737Z,89.68
2022-11-17T10:43:28.571Z,90.07
2022-11-17T10:46:16.954Z,89.48
2022-11-17T10:49:04.901Z,91.24
2022-11-17T10:51:33.774Z,91.07
2022-11-17T10:54:15.344Z,91.21
2022-11-17T10:57:08.728Z,90.56
2022-11-17T10:59:56.888Z,90.10
2022-11-17T11:02:34.436Z,90.57
2022-11-17T11:05:18.018Z,90.40
2022-11-17T11:07:45.544Z,90.68
2022-11-17T11:10:27.658Z,90.00
2022-11-17T11:13:14.808Z,90.73
2022-11-17T11:15:42.007Z,91.29
2022-11-17T11:18:18.243Z,91.84
2022-11-17T11:21:17.086Z,92.68
2022-11-17T11:24:08.832Z,92.10
2022-11-17T11:27:37.069Z,92.67
2022-11-17T11:30:16.079Z,93.28
2022-11-17T11:33:01.016Z,92.46
2022-11-17T11:35:56.230Z,91.93
2022-11-17T11:39:00.733Z,92.41
2022-11-17T11:42:10.297Z,93.02
2022-11-17T11:45:04.815Z,92.55
2022-11-17T11:47:56.556Z,91.96
2022-11-17T11:50:28.056Z,92.62
2022-11-17T11:53:04.403Z,93.43
2022-11-17T11:55:35.900Z,93.31
2022-11-17T11:58:23.777Z,93.04
2022-11-17T12:01:05.730Z,93.65
2022-11-17T12:03:43.708Z,93.90
2022-11-17T12:06:42.000Z,94.20
2022-11-17T12:09:56.439Z,94.04
2022-11-17T12:12:33.826Z,93.61
2022-11-17T12:15:11.278Z,93.71
2022-11-17T12:17:53.019Z,93.53
2022-11-17T12:20:37.949Z,93.73
2022-11-17T12:23:35.867Z,93.36
2022-11-17T12:26:03.311Z,93.88
2022-11-17T12:28:41.073Z,93.72
2022-11-17T12:31:19.112Z,93.79
2022-11-17T12:33:51.998Z,93.93
2022-11-17T12:36:30.788Z,94.07
2022-11-17T12:39:09.311Z,93.65
2022-11-17T12:41:48.560Z,93.88
2022-11-17T12:44:37.389Z,93.65
2022-11-17T12:47:21.466Z,94.17
2022-11-17T12:50:20.118Z,93.73
2022-11-17T12:53:13.578Z,93.94
2022-11-17T12:56:35.524Z,93.23
2022-11-17T13:00:01.194Z,93.54
2022-11-17T13:02:54.639Z,93.31
2022-11-17T13:05:28.121Z,92.86
2022-11-17T13:08:13.771Z,93.15
2022-11-17T13:10:41.672Z,93.16
2022-11-17T13:13:21.075Z,93.12
2022-11-17T13:15:58.694Z,93.09
2022-11-17T13:18:39.204Z,93.31
2022-11-17T13:21:24.877Z,94.10
2022-11-17T13:23:53.502Z,93.52
2022-11-17T13:26:27.155Z,93.76
2022-11-17T13:29:12.395Z,93.73
2022-11-17T13:31:39.806Z,93.29
2022-11-17T13:34:16.697Z,93.55
2022-11-17T13:36:55.482Z,93.95
2022-11-17T13:39:27.012Z,94.05
2022-11-17T13:41:56.245Z,93.67
2022-11-17T13:44:28.222Z,93.21
2022-11-17T13:46:56.045Z,93.43
2022-11-17T13:49:39.492Z,93.48
2022-11-17T13:52:40.478Z,93.07
2022-11-17T13:55:10.403Z,92.86
2022-11-17T13:57:37.607Z,92.59
2022-11-17T14:00:05.340Z,92.70
2022-11-17T14:02:36.652Z,92.70
2022-11-17T14:05:13.238Z,92.46
2022-11-17T14:07:42.123Z,92.53
2022-11-17T14:10:21.253Z,92.40
2022-11-17T14:12:50.775Z,92.51
2022-11-17T14:15:26.754Z,92.67
2022-11-17T14:17:57.925Z,92.74
2022-11-17T14:20:24.778Z,92.82
2022-11-17T14:23:10.542Z,93.02
2022-11-17T14:25:46.299Z,92.89
2022-11-17T14:28:19.152Z,92.88
2022-11-17T14:31:04.222Z,93.38
2022-11-17T14:33:31.218Z,93.12
2022-11-17T14:35:59.924Z,92.32
2022-11-17T14:38:26.900Z,92.13
2022-11-17T14:40:54.161Z,93.15
2022-11-17T14:43:22.395Z,92.92
2022-11-17T14:45:50.680Z,92.42
2022-11-17T14:48:19.625Z,92.51
2022-11-17T14:50:47.664Z,91.93
2022-11-17T14:53:15.017Z,92.60
2022-11-17T14:55:41.960Z,92.07
2022-11-17T14:58:09.832Z,92.81
2022-11-17T15:00:37.102Z,93.19
2022-11-17T15:03:04.638Z,92.53
2022-11-17T15:05:31.963Z,93.11
2022-11-17T15:07:59.041Z,93.27
2022-11-17T15:10:26.034Z,92.41
2022-11-17T15:12:52.996Z,92.93
2022-11-17T15:15:19.940Z,92.78
2022-11-17T15:17:46.898Z,93.21
2022-11-17T15:20:14.029Z,93.10
2022-11-17T15:22:40.958Z,93.45
2022-11-17T15:25:08.569Z,93.00
2022-11-17T15:27:35.488Z,93.63
2022-11-17T15:30:02.609Z,93.71
2022-11-17T15:32:29.746Z,93.19
2022-11-17T15:34:56.696Z,93.42
2022-11-17T15:37:23.677Z,92.55
2022-11-17T15:39:50.610Z,94.06
2022-11-17T15:42:17.716Z,94.24
2022-11-17T15:44:44.693Z,94.66
2022-11-17T15:47:11.612Z,94.10
2022-11-17T15:49:38.564Z,94.34
2022-11-17T15:52:05.518Z,94.47
2022-11-17T15:54:32.848Z,94.62
2022-11-17T15:57:01.364Z,94.77
2022-11-17T15:59:28.444Z,94.73
2022-11-17T16:01:55.961Z,95.07
2022-11-17T16:04:22.953Z,94.80
2022-11-17T16:06:49.972Z,94.53
2022-11-17T16:09:17.480Z,94.89
2022-11-17T16:11:44.807Z,94.60
2022-11-17T16:14:11.854Z,95.08
2022-11-17T16:16:39.605Z,94.61
2022-11-17T16:19:07.047Z,94.70
2022-11-17T16:21:34.142Z,94.22
2022-11-17T16:24:02.008Z,94.60
2022-11-17T16:26:29.975Z,94.41
2022-11-17T16:28:59.395Z,94.66
2022-11-17T16:31:29.890Z,94.41
2022-11-17T16:34:10.315Z,94.06
2022-11-17T16:36:40.242Z,93.24
2022-11-17T16:39:13.399Z,93.22
2022-11-17T16:41:42.825Z,93.29
2022-11-17T16:44:13.468Z,92.91
2022-11-17T16:46:46.792Z,92.92
2022-11-17T16:49:17.367Z,93.44
2022-11-17T16:51:49.610Z,92.64
2022-11-17T16:54:17.898Z,93.05
2022-11-17T16:56:45.113Z,93.87
2022-11-17T16:59:12.334Z,94.90
2022-11-17T17:01:39.679Z,94.78
2022-11-17T17:04:10.006Z,94.87
2022-11-17T17:06:40.856Z,95.55
2022-11-17T17:09:10.657Z,95.05
2022-11-17T17:11:38.328Z,95.89
2022-11-17T17:14:09.236Z,95.67
2022-11-17T17:16:37.175Z,95.85
2022-11-17T17:19:07.224Z,95.80
2022-11-17T17:21:35.150Z,95.74
2022-11-17T17:24:02.569Z,96.15
2022-11-17T17:26:31.605Z,95.73
2022-11-17T17:29:00.861Z,96.04
2022-11-17T17:31:35.666Z,95.93
2022-11-17T17:34:04.081Z,96.34
2022-11-17T17:36:31.159Z,96.61
2022-11-17T17:39:01.670Z,96.73
2022-11-17T17:41:32.561Z,96.77
2022-11-17T17:44:05.166Z,96.53
2022-11-17T17:46:37.916Z,96.21
2022-11-17T17:49:05.672Z,96.45
2022-11-17T17:51:36.038Z,96.16
2022-11-17T17:54:03.093Z,96.77
2022-11-17T17:56:32.574Z,96.73
2022-11-17T17:58:59.698Z,97.13
2022-11-17T18:01:30.214Z,96.65
2022-11-17T18:04:04.798Z,96.67
2022-11-17T18:06:38.268Z,96.63
2022-11-17T18:09:07.533Z,96.28
2022-11-17T18:11:35.591Z,95.20
2022-11-17T18:14:03.895Z,95.69
2022-11-17T18:16:33.617Z,96.07
2022-11-17T18:19:05.192Z,95.88
2022-11-17T18:21:32.841Z,95.82
2022-11-17T18:24:01.970Z,95.74
2022-11-17T18:26:32.757Z,95.69
2022-11-17T18:29:04.947Z,96.01
2022-11-17T18:31:35.296Z,96.08
2022-11-17T18:34:12.922Z,95.81
2022-11-17T18:36:39.920Z,95.62
2022-11-17T18:39:06.955Z,95.63
2022-11-17T18:41:35.188Z,96.76
2022-11-17T18:44:02.673Z,96.05
2022-11-17T18:46:32.455Z,96.51
2022-11-17T18:49:00.326Z,96.63
2022-11-17T18:51:31.318Z,97.00
2022-11-17T18:54:01.291Z,96.76
2022-11-17T18:56:36.123Z,96.51
2022-11-17T18:59:12.144Z,96.03
2022-11-17T19:01:42.164Z,95.38
2022-11-17T19:04:12.268Z,95.30
2022-11-17T19:06:39.256Z,95.52
2022-11-17T19:09:06.731Z,96.50
2022-11-17T19:11:34.550Z,96.17
2022-11-17T19:14:02.602Z,96.28
2022-11-17T19:16:30.040Z,96.39
2022-11-17T19:18:57.921Z,97.04
2022-11-17T19:21:33.416Z,96.40
2022-11-17T19:24:04.317Z,95.68
2022-11-17T19:26:33.467Z,95.50
2022-11-17T19:29:12.660Z,95.82
2022-11-17T19:31:42.895Z,96.63
2022-11-17T19:34:09.991Z,96.80
2022-11-17T19:36:37.389Z,96.75
2022-11-17T19:39:04.495Z,96.82
2022-11-17T19:41:35.311Z,96.66
2022-11-17T19:44:05.678Z,97.00
2022-11-17T19:46:33.436Z,97.07
2022-11-17T19:49:00.763Z,97.09
2022-11-17T19:51:34.617Z,97.28
2022-11-17T19:54:04.656Z,97.39
2022-11-17T19:56:31.788Z,96.75
2022-11-17T19:58:59.044Z,97.22
2022-11-17T20:01:30.602Z,97.54
2022-11-17T20:04:02.605Z,98.05
2022-11-17T20:06:36.884Z,97.57
2022-11-17T20:09:12.531Z,98.12
2022-11-17T20:11:40.853Z,97.63
2022-11-17T20:14:08.020Z,98.02
2022-11-17T20:16:36.677Z,97.96
2022-11-17T20:19:04.153Z,98.03
2022-11-17T20:21:31.388Z,98.28
2022-11-17T20:24:00.262Z,98.23
2022-11-17T20:26:31.913Z,98.26
2022-11-17T20:29:00.680Z,98.16
2022-11-17T20:31:31.694Z,98.24
2022-11-17T20:34:00.526Z,97.60
2022-11-17T20:36:31.688Z,98.38
2022-11-17T20:39:06.149Z,98.36
2022-11-17T20:41:33.380Z,98.36
2022-11-17T20:44:01.698Z,98.13
2022-11-17T20:46:29.196Z,98.14
2022-11-17T20:48:56.205Z,98.15
2022-11-17T20:51:24.877Z,98.17
2022-11-17T20:53:52.034Z,98.63
2022-11-17T20:56:19.625Z,98.52
2022-11-17T20:58:46.702Z,98.48
2022-11-17T21:01:20.138Z,98.14
2022-11-17T21:03:47.954Z,98.25
2022-11-17T21:06:16.291Z,98.20
2022-11-17T21:08:44.858Z,98.60
2022-11-17T21:11:39.901Z,98.45
2022-11-17T21:14:09.901Z,98.48
2022-11-17T21:16:39.637Z,98.15
2022-11-17T21:19:08.104Z,98.04
2022-11-17T21:21:35.610Z,98.07
2022-11-17T21:24:03.269Z,97.91
2022-11-17T21:26:30.678Z,97.80
2022-11-17T21:29:03.190Z,97.87
2022-11-17T21:31:34.016Z,97.33
2022-11-17T21:34:05.087Z,97.84
2022-11-17T21:36:33.903Z,97.51
2022-11-17T21:39:01.100Z,97.71
2022-11-17T21:41:31.103Z,97.92
2022-11-17T21:44:00.564Z,97.53
2022-11-17T21:46:31.376Z,97.29
2022-11-17T21:49:00.502Z,97.59
2022-11-17T21:51:33.115Z,97.47
2022-11-17T21:54:03.189Z,97.23
2022-11-17T21:56:31.855Z,96.87
2022-11-17T21:59:10.970Z,96.50
2022-11-17T22:01:39.388Z,97.33
2022-11-17T22:04:06.427Z,96.64
2022-11-17T22:06:33.442Z,96.68
2022-11-17T22:09:00.416Z,96.42
2022-11-17T22:11:36.573Z,96.41
2022-11-17T22:14:19.357Z,96.64
2022-11-17T22:16:54.954Z,96.08
2022-11-17T22:19:24.537Z,96.64
2022-11-17T22:21:53.741Z,96.48
2022-11-17T22:24:22.952Z,96.80
2022-11-17T22:26:51.427Z,97.29
2022-11-17T22:29:21.997Z,96.48
2022-11-17T22:31:49.805Z,96.91
2022-11-17T22:34:18.158Z,96.76
2022-11-17T22:36:45.280Z,96.81
2022-11-17T22:39:12.291Z,96.57
2022-11-17T22:41:40.309Z,97.21
2022-11-17T22:44:07.402Z,97.12
2022-11-17T22:46:36.031Z,96.72
2022-11-17T22:49:03.260Z,97.17
2022-11-17T22:51:48.509Z,97.45
2022-11-17T22:54:15.520Z,97.75
2022-11-17T22:56:42.821Z,97.47
2022-11-17T22:59:09.887Z,97.51
2022-11-17T23:01:37.115Z,97.29
2022-11-17T23:04:04.320Z,97.91
2022-11-17T23:06:31.274Z,97.80
2022-11-17T23:08:58.610Z,97.71
2022-11-17T23:11:41.899Z,97.82
2022-11-17T23:14:14.538Z,97.81
2022-11-17T23:16:42.084Z,97.57
2022-11-17T23:19:13.705Z,97.60
2022-11-17T23:21:41.285Z,97.73
2022-11-17T23:24:12.835Z,97.48
2022-11-17T23:26:40.569Z,97.94
2022-11-17T23:29:09.101Z,98.08
2022-11-17T23:31:36.085Z,98.00
2022-11-17T23:34:03.121Z,97.93
2022-11-17T23:36:30.230Z,97.87
2022-11-17T23:38:57.727Z,97.85
2022-11-17T23:41:24.713Z,98.25
2022-11-17T23:43:53.931Z,98.00
2022-11-17T23:46:23.913Z,97.94
2022-11-17T23:48:51.234Z,98.12
2022-11-17T23:51:21.354Z,98.29
2022-11-17T23:53:49.347Z,97.84
2022-11-17T23:56:18.841Z,98.11
2022-11-17T23:58:46.162Z,98.33
